Home   Weather   India   Gonda   Past weeks
Flag for India

Past Weather in Gonda, Uttar Pradesh, India — Yesterday and Last 2 Weeks

Currently: 75 °F. Haze. (Weather station: Lucknow / Amausi, India). See more current weather

Past Weather in Gonda — Graph

°F

Gonda Temperature Yesterday

Maximum temperature yesterday: 79 °F (at 2:30 pm)
Minimum temperature yesterday: 54 °F (at 6:30 am)
Average temperature yesterday: 65 °F

High & Low Weather Summary for the Past Weeks

 TemperatureHumidityPressure
High81 °F (Nov 27, 3:30 pm)100% (Nov 27, 1:30 am)30.09 "Hg (Nov 27, 1:30 am)
Low52 °F (Dec 6, 6:30 am)42% (Nov 25, 2:30 pm)29.80 "Hg (Nov 27, 2:00 pm)
Average65 °F81%29.95 "Hg
* Reported Nov 25 10:30 am — Dec 10 11:00 am, Gonda. Weather by CustomWeather, © 2022

Note: Actual official high and low records may vary slightly from our data, if they occured in-between our weather recording intervals... More about our weather records

Gonda Weather History for the Previous 24 Hours

Scroll right to see more
 ConditionsComfort  
Time TempWeatherWind HumidityBarometerVisibility
11:00 am
Sat, Dec 10
73 °FHaze.No wind74%30.01 "Hg1 mi
10:30 am70 °FFog.No wind78%30.04 "Hg1 mi
10:00 am66 °FFog.No wind88%30.04 "Hg1 mi
9:30 am64 °FFog.No wind88%30.04 "Hg1 mi
9:00 am61 °FFog.No wind94%30.01 "Hg1 mi
8:30 am57 °FFog.No wind94%30.01 "Hg1 mi
8:00 am55 °FFog.No wind94%30.01 "Hg0 mi
7:30 am54 °FFog.No wind94%29.98 "Hg0 mi
7:00 am52 °FFog.No wind100%29.98 "Hg0 mi
6:30 am54 °FFog.No wind94%29.98 "Hg1 mi
5:00 am55 °FFog.No wind94%29.92 "Hg1 mi
4:30 am55 °FFog.No wind94%29.92 "Hg1 mi
4:00 am55 °FClear.No wind94%29.92 "Hg1 mi
3:30 am55 °FClear.No wind100%29.92 "Hg1 mi
3:00 am55 °FClear.No wind100%29.92 "Hg1 mi
2:30 am55 °FClear.No wind100%29.92 "Hg1 mi
2:00 am57 °FFog.No wind94%29.92 "Hg1 mi
1:30 am57 °FFog.No wind94%29.92 "Hg1 mi
1:00 am59 °FFog.No wind94%29.92 "Hg1 mi
12:30 am61 °FFog.No wind94%29.95 "Hg1 mi
11:30 pm
Fri, Dec 9
61 °FFog.No wind94%29.95 "Hg1 mi
11:00 pm63 °FFog.No wind88%29.95 "Hg1 mi
10:30 pm63 °FFog.No wind88%29.95 "Hg1 mi
9:30 pm63 °FFog.No wind88%29.95 "Hg1 mi
9:00 pm63 °FFog.No wind88%29.95 "Hg1 mi
8:30 pm63 °FFog.No wind94%29.95 "Hg1 mi
8:00 pm64 °FFog.No wind88%29.92 "Hg1 mi
7:30 pm64 °FFog.No wind88%29.92 "Hg1 mi
7:00 pm66 °FFog.No wind88%29.92 "Hg1 mi
6:30 pm68 °FFog.No wind83%29.89 "Hg1 mi
5:30 pm72 °FHaze.No wind73%29.89 "Hg1 mi
5:00 pm73 °FHaze.No wind69%29.89 "Hg1 mi
4:30 pm77 °FHaze.No wind61%29.89 "Hg1 mi
4:00 pm79 °FHaze.No wind58%29.89 "Hg1 mi
3:00 pm79 °FHaze.No wind54%29.89 "Hg1 mi
2:30 pm79 °FHaze.No wind58%29.89 "Hg1 mi
2:00 pm77 °FHaze.No wind61%29.92 "Hg1 mi
1:30 pm75 °FHaze.No wind65%29.92 "Hg1 mi
12:30 pm75 °FHaze.No wind65%29.95 "Hg1 mi
12:00 pm75 °FHaze.No wind69%29.98 "Hg1 mi
Weather by CustomWeather, © 2022

See weather overview